Moon Step — V3VU4 — position and weather

sailwx.info

Track history (hours):
 
Tides and Currents Weather Stations Pressure Air Temp Water Temp Dewpoint Dewpoint Depression Visibility Wind Speed Wind Dir Waves Ship Positions

Moon Step

Last reported at 2017-Nov-16 03:38 UTC. Time now 2017-Nov-20 19:05 UTC.
Position N 43°11' E 007°02'.

Length 101 m; draft 5.3 m.

Type: Ship. MMSI: 312008000.

Date/timePositionNaut miles runAvg speedWind from/ knotsBaromVisibWave heightAir tempDewpointWater temp
2017-Nov-16 03:38N 43°11' E 007°02'111.0
2017-Nov-16 03:30N 43°12' E 007°03'510.8
2017-Nov-16 03:01N 43°15' E 007°09'510.6
2017-Nov-16 02:30N 43°19' E 007°14'710.6
2017-Nov-16 01:50N 43°24' E 007°22'310.6
2017-Nov-16 01:30N 43°26' E 007°26'5410.1
2017-Nov-15 20:10N 43°60' E 008°24'2 8.1
2017-Nov-15 19:54N 44°01' E 008°26'3 8.1
2017-Nov-15 19:29N 44°03' E 008°30'4 7.6
2017-Nov-15 19:00N 44°05' E 008°34'5 9.3
2017-Nov-15 18:31N 44°09' E 008°38'510.6
2017-Nov-15 18:00N 44°12' E 008°44'510.7
2017-Nov-15 17:30N 44°16' E 008°50'4 8.8
2017-Nov-15 17:00N 44°19' E 008°53'4 7.6
2017-Nov-15 16:30N 44°23' E 008°53'2 3.0
2017-Nov-15 15:59N 44°24' E 008°52'0 0.0
2017-Nov-15 15:29N 44°24' E 008°52'0 0.0
2017-Nov-15 14:59N 44°24' E 008°52'0 0.0
2017-Nov-15 14:29N 44°24' E 008°52'0 0.0
2017-Nov-15 13:59N 44°24' E 008°52'0 0.0
2017-Nov-15 13:29N 44°24' E 008°52'0 0.0
2017-Nov-15 12:59N 44°24' E 008°52'0 0.0
2017-Nov-15 12:29N 44°24' E 008°52'0 0.0
2017-Nov-15 11:50N 44°24' E 008°52'0 0.0
2017-Nov-15 11:23N 44°24' E 008°52'0 0.0
2017-Nov-15 10:53N 44°24' E 008°52'0 0.0
2017-Nov-15 10:29N 44°24' E 008°52'0 0.0
2017-Nov-15 09:59N 44°24' E 008°52'0 0.0
2017-Nov-15 09:29N 44°24' E 008°52'0 0.0
2017-Nov-15 08:53N 44°24' E 008°52'0 0.0
2017-Nov-15 08:26N 44°24' E 008°52'0 0.0
2017-Nov-15 07:56N 44°24' E 008°52'0 0.0
2017-Nov-15 07:29N 44°24' E 008°52'0 0.0
2017-Nov-15 06:56N 44°24' E 008°52'0 0.0
2017-Nov-15 06:29N 44°24' E 008°52'0 0.0
2017-Nov-15 05:56N 44°24' E 008°52'0 0.0
2017-Nov-15 05:26N 44°24' E 008°52'0 0.0
2017-Nov-15 04:59N 44°24' E 008°52'0 0.0
2017-Nov-15 04:29N 44°24' E 008°52'0 0.0
2017-Nov-15 03:59N 44°24' E 008°52'0 0.0
2017-Nov-15 03:29N 44°24' E 008°52'0 0.0
2017-Nov-15 02:56N 44°24' E 008°52'0 0.0
2017-Nov-15 02:29N 44°24' E 008°52'0 0.0
2017-Nov-15 01:59N 44°24' E 008°52'0 0.0
2017-Nov-15 01:29N 44°24' E 008°52'0 0.0
2017-Nov-15 00:59N 44°24' E 008°52'0 0.0
2017-Nov-15 00:29N 44°24' E 008°52'0 0.0
2017-Nov-14 23:59N 44°24' E 008°52'0 0.0
2017-Nov-14 23:29N 44°24' E 008°52'0 0.0
2017-Nov-14 22:59N 44°24' E 008°52'0 0.0
2017-Nov-14 22:29N 44°24' E 008°52'0 0.0
2017-Nov-14 21:59N 44°24' E 008°52'0 0.0
2017-Nov-14 21:29N 44°24' E 008°52'0 0.0
2017-Nov-14 20:59N 44°24' E 008°52'0 0.0
2017-Nov-14 20:29N 44°24' E 008°52'0 0.0
2017-Nov-14 19:59N 44°24' E 008°52'0 0.0
2017-Nov-14 19:29N 44°24' E 008°52'0 0.0
2017-Nov-14 18:56N 44°24' E 008°52'0 0.0
2017-Nov-14 18:29N 44°24' E 008°52'0 0.0
2017-Nov-14 17:56N 44°24' E 008°52'0 0.0
2017-Nov-14 17:23N 44°24' E 008°52'0 0.0
2017-Nov-14 16:59N 44°24' E 008°52'0 0.0
2017-Nov-14 16:29N 44°24' E 008°52'0 0.0
2017-Nov-14 15:53N 44°24' E 008°52'0 0.0
2017-Nov-14 15:26N 44°24' E 008°52'0 0.0
2017-Nov-14 14:56N 44°24' E 008°52'0 0.0
2017-Nov-14 14:26N 44°24' E 008°52'0 0.0
2017-Nov-14 13:56N 44°24' E 008°52'0 0.0
2017-Nov-14 13:26N 44°24' E 008°52'0 0.0
2017-Nov-14 12:56N 44°24' E 008°52'0 0.0
2017-Nov-14 12:30N 44°24' E 008°52'0 0.0
2017-Nov-14 12:00N 44°24' E 008°52'0 0.0
2017-Nov-14 11:30N 44°24' E 008°52'0 0.0
2017-Nov-14 11:00N 44°24' E 008°52'0 0.0
2017-Nov-14 10:30N 44°24' E 008°52'0 0.0
2017-Nov-14 10:00N 44°24' E 008°52'0 0.0
2017-Nov-14 09:30N 44°24' E 008°52'0 0.0
2017-Nov-14 09:00N 44°24' E 008°52'0 0.0
2017-Nov-14 08:30N 44°24' E 008°52'0 0.0
2017-Nov-14 08:00N 44°24' E 008°52'0 0.0
2017-Nov-14 07:30N 44°24' E 008°52'0 0.0
2017-Nov-14 07:00N 44°24' E 008°52'0 0.0
2017-Nov-14 06:30N 44°24' E 008°52'0 0.0
2017-Nov-14 06:00N 44°24' E 008°52'0 0.0
2017-Nov-14 05:30N 44°24' E 008°52'0 0.0
2017-Nov-14 05:00N 44°24' E 008°52'0 0.0
2017-Nov-14 04:30N 44°24' E 008°52'0 0.0
2017-Nov-14 03:57N 44°24' E 008°52'0 0.0
2017-Nov-14 03:21N 44°24' E 008°52'0 0.0
2017-Nov-14 02:57N 44°24' E 008°52'0 0.0
2017-Nov-14 02:24N 44°24' E 008°52'0 0.0
2017-Nov-14 01:57N 44°24' E 008°52'0 0.0
2017-Nov-14 01:27N 44°24' E 008°52'0 0.0
2017-Nov-14 00:51N 44°24' E 008°52'0 0.0
2017-Nov-14 00:27N 44°24' E 008°52'0 0.0
2017-Nov-13 23:57N 44°24' E 008°52'0 0.0
2017-Nov-13 23:27N 44°24' E 008°52'0 0.0
2017-Nov-13 22:54N 44°24' E 008°52'0 0.0
2017-Nov-13 22:24N 44°24' E 008°52'0 0.0
2017-Nov-13 21:54N 44°24' E 008°52'0 0.0
2017-Nov-13 01:57N 44°24' E 008°52'0 0.0
2017-Nov-13 01:30N 44°24' E 008°52'0 0.0
2017-Nov-13 01:00N 44°24' E 008°52'0 0.0
2017-Nov-13 00:30N 44°24' E 008°52'0 0.0
2017-Nov-13 00:00N 44°24' E 008°52'0 0.0
2017-Nov-12 23:30N 44°24' E 008°52'0 0.0
2017-Nov-12 23:00N 44°24' E 008°52'0 0.0
2017-Nov-12 22:30N 44°24' E 008°52'0 0.0
2017-Nov-12 22:00N 44°24' E 008°52'0 0.0
2017-Nov-12 21:30N 44°24' E 008°52'0 0.0
2017-Nov-12 21:00N 44°24' E 008°52'0 0.0
2017-Nov-12 20:30N 44°24' E 008°52'0 0.0
2017-Nov-12 19:51N 44°24' E 008°52'0 0.0
2017-Nov-12 19:30N 44°24' E 008°52'0 0.0
2017-Nov-12 19:00N 44°24' E 008°52'0 0.0
2017-Nov-12 18:30N 44°24' E 008°52'0 0.0
2017-Nov-12 18:00N 44°24' E 008°52'0 0.0
2017-Nov-12 17:21N 44°24' E 008°52'0 0.0
2017-Nov-12 16:57N 44°24' E 008°52'0 0.0
2017-Nov-12 16:27N 44°24' E 008°52'0 0.0
2017-Nov-12 15:54N 44°24' E 008°52'0 0.0
2017-Nov-12 15:24N 44°24' E 008°52'0 0.0
2017-Nov-12 14:57N 44°24' E 008°52'0 0.0
2017-Nov-12 14:24N 44°24' E 008°52'0 0.0
2017-Nov-12 13:57N 44°24' E 008°52'0 0.0
2017-Nov-12 13:27N 44°24' E 008°52'0 0.0
2017-Nov-12 12:54N 44°24' E 008°52'0 0.0
2017-Nov-12 12:27N 44°24' E 008°52'0 0.0
2017-Nov-12 11:57N 44°24' E 008°52'0 0.0
2017-Nov-12 11:27N 44°24' E 008°52'0 0.0
2017-Nov-12 10:57N 44°24' E 008°52'0 0.0
2017-Nov-12 10:27N 44°24' E 008°52'0 0.0
2017-Nov-12 09:57N 44°24' E 008°52'0 0.0
2017-Nov-12 09:30N 44°24' E 008°52'0 0.0
2017-Nov-12 09:00N 44°24' E 008°52'0 0.0
2017-Nov-12 08:30N 44°24' E 008°52'0 0.0
2017-Nov-12 08:00N 44°24' E 008°52'0 0.0
2017-Nov-12 07:30N 44°24' E 008°52'0 0.0
2017-Nov-12 07:00N 44°24' E 008°52'0 0.0
2017-Nov-12 06:30N 44°24' E 008°52'0 0.0
2017-Nov-12 06:00N 44°24' E 008°52'0 0.0
2017-Nov-12 05:30N 44°24' E 008°52'0 0.0
2017-Nov-12 05:00N 44°24' E 008°52'0 0.0
2017-Nov-12 04:30N 44°24' E 008°52'0 0.0
2017-Nov-12 04:00N 44°24' E 008°52'0 0.0
2017-Nov-12 03:30N 44°24' E 008°52'0 0.0
2017-Nov-12 02:57N 44°24' E 008°52'0 0.0
2017-Nov-12 02:30N 44°24' E 008°52'0 0.0
2017-Nov-12 02:00N 44°24' E 008°52'0 0.0
2017-Nov-12 01:21N 44°24' E 008°52'0 0.0
2017-Nov-12 00:57N 44°24' E 008°52'0 0.0
2017-Nov-12 00:21N 44°24' E 008°52'0 0.0
2017-Nov-11 23:57N 44°24' E 008°52'0 0.0
2017-Nov-11 23:27N 44°24' E 008°52'0 0.0
2017-Nov-11 22:54N 44°24' E 008°52'0 0.0
2017-Nov-11 22:24N 44°24' E 008°52'0 0.0
2017-Nov-11 21:54N 44°24' E 008°52'0 0.0
2017-Nov-11 21:24N 44°24' E 008°52'0 0.0
2017-Nov-11 20:57N 44°24' E 008°52'0 0.0
2017-Nov-11 20:27N 44°24' E 008°52'0 0.0
2017-Nov-11 19:57N 44°24' E 008°52'0 0.0
2017-Nov-11 19:27N 44°24' E 008°52'0 0.0
2017-Nov-11 18:57N 44°24' E 008°52'0 0.0
2017-Nov-11 18:26N 44°24' E 008°52'0 0.0
2017-Nov-11 17:56N 44°24' E 008°52'0 0.0
2017-Nov-11 17:26N 44°24' E 008°52'0 0.0
2017-Nov-11 16:59N 44°24' E 008°52'0 0.0
2017-Nov-11 16:23N 44°24' E 008°52'0 0.0
2017-Nov-11 15:59N 44°24' E 008°52'0 0.0
2017-Nov-11 15:29N 44°24' E 008°52'0 0.0
2017-Nov-11 14:59N 44°24' E 008°52'0 0.0
2017-Nov-11 14:29N 44°24' E 008°52'0 0.0
2017-Nov-11 13:59N 44°24' E 008°52'0 0.0
2017-Nov-11 13:29N 44°24' E 008°52'0 0.0
2017-Nov-11 13:00N 44°24' E 008°52'0 0.0
2017-Nov-11 12:26N 44°24' E 008°52'0 0.0
2017-Nov-11 11:50N 44°24' E 008°52'0 0.0
2017-Nov-11 11:20N 44°24' E 008°52'0 0.0
2017-Nov-11 10:56N 44°24' E 008°52'0 0.0
2017-Nov-11 10:26N 44°24' E 008°52'0 0.0
2017-Nov-11 09:56N 44°24' E 008°52'0 0.0
2017-Nov-11 09:23N 44°24' E 008°52'0 0.0
2017-Nov-11 08:56N 44°24' E 008°52'0 0.0
2017-Nov-11 08:26N 44°24' E 008°52'0 0.0
2017-Nov-11 07:56N 44°24' E 008°52'0 0.0
2017-Nov-11 07:26N 44°24' E 008°52'0 0.0
2017-Nov-11 06:56N 44°24' E 008°52'0 0.0
2017-Nov-11 06:26N 44°24' E 008°52'0 0.0
2017-Nov-11 05:56N 44°24' E 008°52'0 0.0
2017-Nov-11 05:26N 44°24' E 008°52'0 0.0
2017-Nov-11 04:53N 44°24' E 008°52'0 0.0
2017-Nov-11 04:29N 44°24' E 008°52'0 0.0
2017-Nov-11 03:59N 44°24' E 008°52'0 0.0
2017-Nov-11 03:29N 44°24' E 008°52'0 0.0
2017-Nov-11 02:59N 44°24' E 008°52'0 0.0
2017-Nov-11 02:29N 44°24' E 008°52'0 0.0
2017-Nov-11 01:59N 44°24' E 008°52'0 0.0
2017-Nov-11 01:29N 44°24' E 008°52'0 0.0
2017-Nov-11 00:59N 44°24' E 008°52'0 0.0
2017-Nov-11 00:29N 44°24' E 008°52'0 0.0
2017-Nov-10 23:59N 44°24' E 008°52'0 0.0
2017-Nov-10 23:29N 44°24' E 008°52'0 0.0
2017-Nov-10 22:59N 44°24' E 008°52'0 0.0
2017-Nov-10 22:29N 44°24' E 008°52'0 0.0
2017-Nov-10 21:59N 44°24' E 008°52'0 0.0
2017-Nov-10 21:29N 44°24' E 008°52'0 0.0
2017-Nov-10 20:59N 44°24' E 008°52'0 0.0
2017-Nov-10 20:20N 44°24' E 008°52'0 0.0
2017-Nov-10 19:56N 44°24' E 008°52'0 0.0
2017-Nov-10 19:20N 44°24' E 008°52'0 0.0
2017-Nov-10 18:56N 44°24' E 008°52'0 0.0
2017-Nov-10 18:23N 44°24' E 008°52'0 0.0
2017-Nov-10 17:53N 44°24' E 008°52'0 0.0
2017-Nov-10 17:26N 44°24' E 008°52'0 0.0
2017-Nov-10 16:56N 44°24' E 008°52'0 0.0
2017-Nov-10 16:26N 44°24' E 008°52'0 0.0
2017-Nov-10 15:44N 44°24' E 008°52'0 0.0
2017-Nov-10 15:26N 44°24' E 008°52'0 0.0
2017-Nov-10 14:56N 44°24' E 008°52'0 0.0
2017-Nov-10 14:26N 44°24' E 008°52'0 0.0
2017-Nov-10 13:56N 44°24' E 008°52'0 0.0
2017-Nov-10 13:14N 44°24' E 008°52'0 0.0
2017-Nov-10 12:56N 44°24' E 008°52'0 0.0
2017-Nov-10 12:29N 44°24' E 008°52'0 0.0
2017-Nov-10 11:59N 44°24' E 008°52'0 0.0
2017-Nov-10 11:29N 44°24' E 008°52'0 0.0
2017-Nov-10 10:59N 44°24' E 008°52'0 0.0
2017-Nov-10 10:14N 44°24' E 008°52'0 0.0
2017-Nov-10 09:59N 44°24' E 008°52'0 0.0
2017-Nov-10 09:29N 44°24' E 008°52'0 0.0
2017-Nov-10 08:59N 44°24' E 008°52'0 0.0
2017-Nov-10 08:29N 44°24' E 008°52'0 0.0
2017-Nov-10 07:58N 44°24' E 008°52'0 0.0
2017-Nov-10 07:28N 44°24' E 008°52'0 0.0
2017-Nov-10 06:58N 44°24' E 008°52'0 0.0
2017-Nov-10 06:28N 44°24' E 008°52'0 0.0
2017-Nov-10 05:58N 44°24' E 008°52'0 0.0
2017-Nov-10 05:28N 44°24' E 008°52'0 0.0
2017-Nov-10 04:49N 44°24' E 008°52'0 0.0
2017-Nov-10 04:28N 44°24' E 008°52'0 0.0
2017-Nov-10 03:49N 44°24' E 008°52'0 0.0
2017-Nov-10 03:19N 44°24' E 008°52'0 0.0
2017-Nov-10 02:49N 44°24' E 008°52'0 0.0
2017-Nov-10 02:25N 44°24' E 008°52'0 0.0
2017-Nov-10 01:52N 44°24' E 008°52'0 0.0
2017-Nov-10 01:25N 44°24' E 008°52'0 0.0
2017-Nov-10 00:52N 44°24' E 008°52'0 0.0
2017-Nov-10 00:22N 44°24' E 008°52'0 0.0
2017-Nov-09 23:52N 44°24' E 008°52'0 0.0
2017-Nov-09 23:25N 44°24' E 008°52'0 0.0
2017-Nov-09 22:55N 44°24' E 008°52'0 0.0
2017-Nov-09 22:25N 44°24' E 008°52'0 0.0
2017-Nov-09 21:55N 44°24' E 008°52'0 0.0
2017-Nov-09 21:25N 44°24' E 008°52'0 0.0
2017-Nov-09 20:55N 44°24' E 008°52'0 0.0
2017-Nov-09 20:25N 44°24' E 008°52'0 0.0
2017-Nov-09 19:58N 44°24' E 008°52'0 0.0
2017-Nov-09 19:28N 44°24' E 008°52'0 0.0
2017-Nov-09 18:58N 44°24' E 008°52'0 0.0
2017-Nov-09 18:28N 44°24' E 008°52'0 0.0
2017-Nov-09 17:58N 44°24' E 008°52'0 0.0
2017-Nov-09 17:28N 44°24' E 008°52'0 0.0
2017-Nov-09 16:58N 44°24' E 008°52'0 0.0
2017-Nov-09 16:28N 44°24' E 008°52'0 0.0
2017-Nov-09 15:58N 44°24' E 008°52'0 0.0
2017-Nov-09 15:28N 44°24' E 008°52'0 0.0
2017-Nov-09 14:58N 44°24' E 008°52'0 0.0
2017-Nov-09 14:28N 44°24' E 008°52'0 0.0
2017-Nov-09 13:58N 44°24' E 008°52'0 0.0
2017-Nov-09 13:28N 44°24' E 008°52'0 0.0
2017-Nov-09 12:58N 44°24' E 008°52'0 0.0
2017-Nov-09 12:28N 44°24' E 008°52'0 0.0
2017-Nov-09 11:58N 44°24' E 008°52'0 0.0
2017-Nov-09 11:28N 44°24' E 008°52'0 0.0
2017-Nov-09 10:58N 44°24' E 008°52'0 0.0
2017-Nov-09 10:28N 44°24' E 008°52'0 0.0
2017-Nov-09 09:58N 44°24' E 008°52'0 0.0
2017-Nov-09 09:28N 44°24' E 008°52'0 0.0
2017-Nov-09 08:58N 44°24' E 008°52'0 0.0
2017-Nov-09 08:19N 44°24' E 008°52'0 0.0
2017-Nov-09 07:58N 44°24' E 008°52'0 0.0
2017-Nov-09 07:28N 44°24' E 008°52'0 0.0
2017-Nov-09 06:55N 44°24' E 008°52'0 0.0
2017-Nov-09 06:25N 44°24' E 008°52'0 0.0
2017-Nov-09 05:49N 44°24' E 008°52'0 0.0
2017-Nov-09 05:25N 44°24' E 008°52'0 0.0
2017-Nov-09 04:52N 44°24' E 008°52'0 0.0
2017-Nov-09 04:22N 44°24' E 008°52'0 0.0
2017-Nov-09 03:55N 44°24' E 008°52'0 0.0
2017-Nov-09 03:22N 44°24' E 008°52'0 0.0
2017-Nov-09 02:55N 44°24' E 008°52'0 0.0
2017-Nov-09 02:22N 44°24' E 008°52'0 0.0
2017-Nov-09 01:55N 44°24' E 008°52'0 0.0
2017-Nov-09 01:25N 44°24' E 008°52'0 0.0
2017-Nov-09 00:55N 44°24' E 008°52'0 0.0
2017-Nov-09 00:25N 44°24' E 008°52'0 0.0
2017-Nov-08 23:55N 44°24' E 008°52'0 0.0
2017-Nov-08 23:25N 44°24' E 008°52'0 0.0
2017-Nov-08 22:58N 44°24' E 008°52'0 0.0
2017-Nov-08 22:28N 44°24' E 008°52'0 0.0
2017-Nov-08 21:58N 44°24' E 008°52'0 0.0
2017-Nov-08 21:28N 44°24' E 008°52'0 0.0
2017-Nov-08 20:58N 44°24' E 008°52'0 0.0
2017-Nov-08 20:28N 44°24' E 008°52'0 0.0
2017-Nov-08 19:58N 44°24' E 008°52'0 0.0
2017-Nov-08 19:28N 44°24' E 008°52'0 0.0
2017-Nov-08 18:58N 44°24' E 008°52'0 0.0
2017-Nov-08 18:28N 44°24' E 008°52'0 0.0
2017-Nov-08 17:58N 44°24' E 008°52'0 0.0
2017-Nov-08 17:28N 44°24' E 008°52'0 0.0
2017-Nov-08 16:58N 44°24' E 008°52'0 0.0
2017-Nov-08 16:28N 44°24' E 008°52'0 0.0
2017-Nov-08 15:58N 44°24' E 008°52'0 0.0
2017-Nov-08 15:28N 44°24' E 008°52'0 0.0
2017-Nov-08 14:58N 44°24' E 008°52'0 0.0
2017-Nov-08 14:19N 44°24' E 008°52'0 0.0
2017-Nov-08 13:55N 44°24' E 008°52'0 0.0
2017-Nov-08 13:19N 44°24' E 008°52'0 0.0
2017-Nov-08 12:52N 44°24' E 008°52'0 0.0
2017-Nov-08 12:22N 44°24' E 008°52'0 0.0
2017-Nov-08 11:52N 44°24' E 008°52'0 0.0
2017-Nov-08 11:22N 44°24' E 008°52'0 0.0
2017-Nov-08 10:52N 44°24' E 008°52'0 0.0
2017-Nov-08 10:22N 44°24' E 008°52'0 0.0
2017-Nov-08 09:52N 44°24' E 008°52'0 0.0
2017-Nov-08 09:25N 44°24' E 008°52'0 0.0
2017-Nov-08 08:55N 44°24' E 008°52'0 0.0
2017-Nov-08 08:25N 44°24' E 008°52'0 0.0
2017-Nov-08 07:55N 44°24' E 008°52'0 0.0
2017-Nov-08 07:25N 44°24' E 008°52'0 0.0
2017-Nov-08 06:55N 44°24' E 008°52'0 0.0
2017-Nov-08 06:28N 44°24' E 008°52'0 0.0
2017-Nov-08 05:58N 44°24' E 008°52'0 0.0
2017-Nov-08 05:28N 44°24' E 008°52'0 0.0
2017-Nov-08 04:58N 44°24' E 008°52'0 0.0
2017-Nov-08 04:28N 44°24' E 008°52'0 0.0
2017-Nov-08 03:58N 44°24' E 008°52'0 0.0
2017-Nov-08 03:28N 44°24' E 008°52'0 0.0
2017-Nov-08 02:58N 44°24' E 008°52'0 0.0
2017-Nov-08 02:28N 44°24' E 008°52'0 0.0
2017-Nov-08 01:58N 44°24' E 008°52'0 0.0
2017-Nov-08 01:28N 44°24' E 008°52'0 0.0
2017-Nov-08 00:58N 44°24' E 008°52'0 0.0
2017-Nov-08 00:28N 44°24' E 008°52'0 0.0
2017-Nov-07 23:58N 44°24' E 008°52'0 0.0
2017-Nov-07 23:28N 44°24' E 008°52'0 0.0
2017-Nov-07 22:58N 44°24' E 008°52'0 0.0
2017-Nov-07 22:28N 44°24' E 008°52'0 0.0
2017-Nov-07 21:55N 44°24' E 008°52'0 0.0
2017-Nov-07 21:25N 44°24' E 008°52'0 0.0
2017-Nov-07 20:55N 44°24' E 008°52'0 0.0
2017-Nov-07 20:28N 44°24' E 008°52'0 0.0
2017-Nov-07 19:55N 44°24' E 008°52'0 0.0
2017-Nov-07 19:22N 44°24' E 008°52'0 0.0
2017-Nov-07 18:58N 44°24' E 008°52'0 0.0
2017-Nov-07 18:25N 44°24' E 008°52'0 0.0
2017-Nov-07 17:58N 44°24' E 008°52'0 0.0
2017-Nov-07 17:25N 44°24' E 008°52'0 0.0
2017-Nov-07 16:58N 44°24' E 008°52'0 0.0
2017-Nov-07 16:28N 44°24' E 008°52'0 0.0
2017-Nov-07 15:55N 44°24' E 008°52'0 0.0
2017-Nov-07 15:25N 44°24' E 008°52'0 0.0
2017-Nov-07 14:55N 44°24' E 008°52'0 0.0
2017-Nov-07 14:28N 44°24' E 008°52'0 0.0
2017-Nov-07 13:58N 44°24' E 008°52'0 0.0
2017-Nov-07 13:28N 44°24' E 008°52'0 0.0
2017-Nov-07 12:58N 44°24' E 008°52'0 0.0
2017-Nov-07 12:28N 44°24' E 008°52'0 0.0
2017-Nov-07 11:58N 44°24' E 008°52'0 0.0
2017-Nov-07 11:19N 44°24' E 008°52'0 0.0
2017-Nov-07 10:58N 44°24' E 008°52'0 0.0
2017-Nov-07 10:28N 44°24' E 008°52'0 0.0
2017-Nov-07 09:55N 44°24' E 008°52'0 0.0
2017-Nov-07 09:28N 44°24' E 008°52'0 0.0
2017-Nov-07 08:58N 44°24' E 008°52'0 0.0
2017-Nov-07 08:28N 44°24' E 008°52'0 0.0
2017-Nov-07 07:58N 44°24' E 008°52'0 0.0
2017-Nov-07 07:28N 44°24' E 008°52'0 0.0
2017-Nov-07 06:58N 44°24' E 008°52'0 0.0
2017-Nov-07 06:28N 44°24' E 008°52'0 0.0
2017-Nov-07 05:58N 44°24' E 008°52'0 0.0
2017-Nov-07 05:25N 44°24' E 008°52'0 0.0
2017-Nov-07 04:52N 44°24' E 008°52'0 0.0
2017-Nov-07 04:22N 44°24' E 008°52'0 0.0
2017-Nov-07 04:01N 44°24' E 008°52'0 0.0
2017-Nov-07 03:22N 44°24' E 008°52'0 0.0
2017-Nov-07 03:01N 44°24' E 008°52'0 0.0
2017-Nov-07 02:28N 44°24' E 008°52'0 0.0
2017-Nov-07 01:55N 44°24' E 008°52'0 0.0
2017-Nov-07 01:31N 44°24' E 008°52'0 0.0
2017-Nov-07 00:58N 44°24' E 008°52'0 0.0
2017-Nov-07 00:31N 44°24' E 008°52'0 0.0
2017-Nov-06 23:58N 44°24' E 008°52'0 0.0
2017-Nov-06 23:25N 44°24' E 008°52'0 0.0
2017-Nov-06 22:57N 44°24' E 008°52'0 0.0
2017-Nov-06 22:24N 44°24' E 008°52'0 0.0
2017-Nov-06 22:00N 44°24' E 008°52'0 0.0
2017-Nov-06 21:27N 44°24' E 008°52'0 0.0
2017-Nov-06 21:00N 44°24' E 008°52'0 0.0
2017-Nov-06 20:27N 44°24' E 008°52'  
Track history (hours):
 
Tides and Currents Weather Stations Pressure Air Temp Water Temp Dewpoint Dewpoint Depression Visibility Wind Speed Wind Dir Waves Ship Positions

Moon Step

Last reported at 2017-Nov-16 03:38 UTC. Time now 2017-Nov-20 19:05 UTC.
Position N 43°11' E 007°02'.

Length 101 m; draft 5.3 m.

Type: Ship. MMSI: 312008000.

Date/timePositionNaut miles runAvg speedWind from/ knotsBaromVisibWave heightAir tempDewpointWater temp
2017-Nov-16 03:38N 43°11' E 007°02'111.0
2017-Nov-16 03:30N 43°12' E 007°03'510.8
2017-Nov-16 03:01N 43°15' E 007°09'510.6
2017-Nov-16 02:30N 43°19' E 007°14'710.6
2017-Nov-16 01:50N 43°24' E 007°22'310.6
2017-Nov-16 01:30N 43°26' E 007°26'5410.1
2017-Nov-15 20:10N 43°60' E 008°24'2 8.1
2017-Nov-15 19:54N 44°01' E 008°26'3 8.1
2017-Nov-15 19:29N 44°03' E 008°30'4 7.6
2017-Nov-15 19:00N 44°05' E 008°34'5 9.3
2017-Nov-15 18:31N 44°09' E 008°38'510.6
2017-Nov-15 18:00N 44°12' E 008°44'510.7
2017-Nov-15 17:30N 44°16' E 008°50'4 8.8
2017-Nov-15 17:00N 44°19' E 008°53'4 7.6
2017-Nov-15 16:30N 44°23' E 008°53'2 3.0
2017-Nov-15 15:59N 44°24' E 008°52'0 0.0
2017-Nov-15 15:29N 44°24' E 008°52'0 0.0
2017-Nov-15 14:59N 44°24' E 008°52'0 0.0
2017-Nov-15 14:29N 44°24' E 008°52'0 0.0
2017-Nov-15 13:59N 44°24' E 008°52'0 0.0
2017-Nov-15 13:29N 44°24' E 008°52'0 0.0
2017-Nov-15 12:59N 44°24' E 008°52'0 0.0
2017-Nov-15 12:29N 44°24' E 008°52'0 0.0
2017-Nov-15 11:50N 44°24' E 008°52'0 0.0
2017-Nov-15 11:23N 44°24' E 008°52'0 0.0
2017-Nov-15 10:53N 44°24' E 008°52'0 0.0
2017-Nov-15 10:29N 44°24' E 008°52'0 0.0
2017-Nov-15 09:59N 44°24' E 008°52'0 0.0
2017-Nov-15 09:29N 44°24' E 008°52'0 0.0
2017-Nov-15 08:53N 44°24' E 008°52'0 0.0
2017-Nov-15 08:26N 44°24' E 008°52'0 0.0
2017-Nov-15 07:56N 44°24' E 008°52'0 0.0
2017-Nov-15 07:29N 44°24' E 008°52'0 0.0
2017-Nov-15 06:56N 44°24' E 008°52'0 0.0
2017-Nov-15 06:29N 44°24' E 008°52'0 0.0
2017-Nov-15 05:56N 44°24' E 008°52'0 0.0
2017-Nov-15 05:26N 44°24' E 008°52'0 0.0
2017-Nov-15 04:59N 44°24' E 008°52'0 0.0
2017-Nov-15 04:29N 44°24' E 008°52'0 0.0
2017-Nov-15 03:59N 44°24' E 008°52'0 0.0
2017-Nov-15 03:29N 44°24' E 008°52'0 0.0
2017-Nov-15 02:56N 44°24' E 008°52'0 0.0
2017-Nov-15 02:29N 44°24' E 008°52'0 0.0
2017-Nov-15 01:59N 44°24' E 008°52'0 0.0
2017-Nov-15 01:29N 44°24' E 008°52'0 0.0
2017-Nov-15 00:59N 44°24' E 008°52'0 0.0
2017-Nov-15 00:29N 44°24' E 008°52'0 0.0
2017-Nov-14 23:59N 44°24' E 008°52'0 0.0
2017-Nov-14 23:29N 44°24' E 008°52'0 0.0
2017-Nov-14 22:59N 44°24' E 008°52'0 0.0
2017-Nov-14 22:29N 44°24' E 008°52'0 0.0
2017-Nov-14 21:59N 44°24' E 008°52'0 0.0
2017-Nov-14 21:29N 44°24' E 008°52'0 0.0
2017-Nov-14 20:59N 44°24' E 008°52'0 0.0
2017-Nov-14 20:29N 44°24' E 008°52'0 0.0
2017-Nov-14 19:59N 44°24' E 008°52'0 0.0
2017-Nov-14 19:29N 44°24' E 008°52'0 0.0
2017-Nov-14 18:56N 44°24' E 008°52'0 0.0
2017-Nov-14 18:29N 44°24' E 008°52'0 0.0
2017-Nov-14 17:56N 44°24' E 008°52'0 0.0
2017-Nov-14 17:23N 44°24' E 008°52'0 0.0
2017-Nov-14 16:59N 44°24' E 008°52'0 0.0
2017-Nov-14 16:29N 44°24' E 008°52'0 0.0
2017-Nov-14 15:53N 44°24' E 008°52'0 0.0
2017-Nov-14 15:26N 44°24' E 008°52'0 0.0
2017-Nov-14 14:56N 44°24' E 008°52'0 0.0
2017-Nov-14 14:26N 44°24' E 008°52'0 0.0
2017-Nov-14 13:56N 44°24' E 008°52'0 0.0
2017-Nov-14 13:26N 44°24' E 008°52'0 0.0
2017-Nov-14 12:56N 44°24' E 008°52'0 0.0
2017-Nov-14 12:30N 44°24' E 008°52'0 0.0
2017-Nov-14 12:00N 44°24' E 008°52'0 0.0
2017-Nov-14 11:30N 44°24' E 008°52'0 0.0
2017-Nov-14 11:00N 44°24' E 008°52'0 0.0
2017-Nov-14 10:30N 44°24' E 008°52'0 0.0
2017-Nov-14 10:00N 44°24' E 008°52'0 0.0
2017-Nov-14 09:30N 44°24' E 008°52'0 0.0
2017-Nov-14 09:00N 44°24' E 008°52'0 0.0
2017-Nov-14 08:30N 44°24' E 008°52'0 0.0
2017-Nov-14 08:00N 44°24' E 008°52'0 0.0
2017-Nov-14 07:30N 44°24' E 008°52'0 0.0
2017-Nov-14 07:00N 44°24' E 008°52'0 0.0
2017-Nov-14 06:30N 44°24' E 008°52'0 0.0
2017-Nov-14 06:00N 44°24' E 008°52'0 0.0
2017-Nov-14 05:30N 44°24' E 008°52'0 0.0
2017-Nov-14 05:00N 44°24' E 008°52'0 0.0
2017-Nov-14 04:30N 44°24' E 008°52'0 0.0
2017-Nov-14 03:57N 44°24' E 008°52'0 0.0
2017-Nov-14 03:21N 44°24' E 008°52'0 0.0
2017-Nov-14 02:57N 44°24' E 008°52'0 0.0
2017-Nov-14 02:24N 44°24' E 008°52'0 0.0
2017-Nov-14 01:57N 44°24' E 008°52'0 0.0
2017-Nov-14 01:27N 44°24' E 008°52'0 0.0
2017-Nov-14 00:51N 44°24' E 008°52'0 0.0
2017-Nov-14 00:27N 44°24' E 008°52'0 0.0
2017-Nov-13 23:57N 44°24' E 008°52'0 0.0
2017-Nov-13 23:27N 44°24' E 008°52'0 0.0
2017-Nov-13 22:54N 44°24' E 008°52'0 0.0
2017-Nov-13 22:24N 44°24' E 008°52'0 0.0
2017-Nov-13 21:54N 44°24' E 008°52'0 0.0
2017-Nov-13 01:57N 44°24' E 008°52'0 0.0
2017-Nov-13 01:30N 44°24' E 008°52'0 0.0
2017-Nov-13 01:00N 44°24' E 008°52'0 0.0
2017-Nov-13 00:30N 44°24' E 008°52'0 0.0
2017-Nov-13 00:00N 44°24' E 008°52'0 0.0
2017-Nov-12 23:30N 44°24' E 008°52'0 0.0
2017-Nov-12 23:00N 44°24' E 008°52'0 0.0
2017-Nov-12 22:30N 44°24' E 008°52'0 0.0
2017-Nov-12 22:00N 44°24' E 008°52'0 0.0
2017-Nov-12 21:30N 44°24' E 008°52'0 0.0
2017-Nov-12 21:00N 44°24' E 008°52'0 0.0
2017-Nov-12 20:30N 44°24' E 008°52'0 0.0
2017-Nov-12 19:51N 44°24' E 008°52'0 0.0
2017-Nov-12 19:30N 44°24' E 008°52'0 0.0
2017-Nov-12 19:00N 44°24' E 008°52'0 0.0
2017-Nov-12 18:30N 44°24' E 008°52'0 0.0
2017-Nov-12 18:00N 44°24' E 008°52'0 0.0
2017-Nov-12 17:21N 44°24' E 008°52'0 0.0
2017-Nov-12 16:57N 44°24' E 008°52'0 0.0
2017-Nov-12 16:27N 44°24' E 008°52'0 0.0
2017-Nov-12 15:54N 44°24' E 008°52'0 0.0
2017-Nov-12 15:24N 44°24' E 008°52'0 0.0
2017-Nov-12 14:57N 44°24' E 008°52'0 0.0
2017-Nov-12 14:24N 44°24' E 008°52'0 0.0
2017-Nov-12 13:57N 44°24' E 008°52'0 0.0
2017-Nov-12 13:27N 44°24' E 008°52'0 0.0
2017-Nov-12 12:54N 44°24' E 008°52'0 0.0
2017-Nov-12 12:27N 44°24' E 008°52'0 0.0
2017-Nov-12 11:57N 44°24' E 008°52'0 0.0
2017-Nov-12 11:27N 44°24' E 008°52'0 0.0
2017-Nov-12 10:57N 44°24' E 008°52'0 0.0
2017-Nov-12 10:27N 44°24' E 008°52'0 0.0
2017-Nov-12 09:57N 44°24' E 008°52'0 0.0
2017-Nov-12 09:30N 44°24' E 008°52'0 0.0
2017-Nov-12 09:00N 44°24' E 008°52'0 0.0
2017-Nov-12 08:30N 44°24' E 008°52'0 0.0
2017-Nov-12 08:00N 44°24' E 008°52'0 0.0
2017-Nov-12 07:30N 44°24' E 008°52'0 0.0
2017-Nov-12 07:00N 44°24' E 008°52'0 0.0
2017-Nov-12 06:30N 44°24' E 008°52'0 0.0
2017-Nov-12 06:00N 44°24' E 008°52'0 0.0
2017-Nov-12 05:30N 44°24' E 008°52'0 0.0
2017-Nov-12 05:00N 44°24' E 008°52'0 0.0
2017-Nov-12 04:30N 44°24' E 008°52'0 0.0
2017-Nov-12 04:00N 44°24' E 008°52'0 0.0
2017-Nov-12 03:30N 44°24' E 008°52'0 0.0
2017-Nov-12 02:57N 44°24' E 008°52'0 0.0
2017-Nov-12 02:30N 44°24' E 008°52'0 0.0
2017-Nov-12 02:00N 44°24' E 008°52'0 0.0
2017-Nov-12 01:21N 44°24' E 008°52'0 0.0
2017-Nov-12 00:57N 44°24' E 008°52'0 0.0
2017-Nov-12 00:21N 44°24' E 008°52'0 0.0
2017-Nov-11 23:57N 44°24' E 008°52'0 0.0
2017-Nov-11 23:27N 44°24' E 008°52'0 0.0
2017-Nov-11 22:54N 44°24' E 008°52'0 0.0
2017-Nov-11 22:24N 44°24' E 008°52'0 0.0
2017-Nov-11 21:54N 44°24' E 008°52'0 0.0
2017-Nov-11 21:24N 44°24' E 008°52'0 0.0
2017-Nov-11 20:57N 44°24' E 008°52'0 0.0
2017-Nov-11 20:27N 44°24' E 008°52'0 0.0
2017-Nov-11 19:57N 44°24' E 008°52'0 0.0
2017-Nov-11 19:27N 44°24' E 008°52'0 0.0
2017-Nov-11 18:57N 44°24' E 008°52'0 0.0
2017-Nov-11 18:26N 44°24' E 008°52'0 0.0
2017-Nov-11 17:56N 44°24' E 008°52'0 0.0
2017-Nov-11 17:26N 44°24' E 008°52'0 0.0
2017-Nov-11 16:59N 44°24' E 008°52'0 0.0
2017-Nov-11 16:23N 44°24' E 008°52'0 0.0
2017-Nov-11 15:59N 44°24' E 008°52'0 0.0
2017-Nov-11 15:29N 44°24' E 008°52'0 0.0
2017-Nov-11 14:59N 44°24' E 008°52'0 0.0
2017-Nov-11 14:29N 44°24' E 008°52'0 0.0
2017-Nov-11 13:59N 44°24' E 008°52'0 0.0
2017-Nov-11 13:29N 44°24' E 008°52'0 0.0
2017-Nov-11 13:00N 44°24' E 008°52'0 0.0
2017-Nov-11 12:26N 44°24' E 008°52'0 0.0
2017-Nov-11 11:50N 44°24' E 008°52'0 0.0
2017-Nov-11 11:20N 44°24' E 008°52'0 0.0
2017-Nov-11 10:56N 44°24' E 008°52'0 0.0
2017-Nov-11 10:26N 44°24' E 008°52'0 0.0
2017-Nov-11 09:56N 44°24' E 008°52'0 0.0
2017-Nov-11 09:23N 44°24' E 008°52'0 0.0
2017-Nov-11 08:56N 44°24' E 008°52'0 0.0
2017-Nov-11 08:26N 44°24' E 008°52'0 0.0
2017-Nov-11 07:56N 44°24' E 008°52'0 0.0
2017-Nov-11 07:26N 44°24' E 008°52'0 0.0
2017-Nov-11 06:56N 44°24' E 008°52'0 0.0
2017-Nov-11 06:26N 44°24' E 008°52'0 0.0
2017-Nov-11 05:56N 44°24' E 008°52'0 0.0
2017-Nov-11 05:26N 44°24' E 008°52'0 0.0
2017-Nov-11 04:53N 44°24' E 008°52'0 0.0
2017-Nov-11 04:29N 44°24' E 008°52'0 0.0
2017-Nov-11 03:59N 44°24' E 008°52'0 0.0
2017-Nov-11 03:29N 44°24' E 008°52'0 0.0
2017-Nov-11 02:59N 44°24' E 008°52'0 0.0
2017-Nov-11 02:29N 44°24' E 008°52'0 0.0
2017-Nov-11 01:59N 44°24' E 008°52'0 0.0
2017-Nov-11 01:29N 44°24' E 008°52'0 0.0
2017-Nov-11 00:59N 44°24' E 008°52'0 0.0
2017-Nov-11 00:29N 44°24' E 008°52'0 0.0
2017-Nov-10 23:59N 44°24' E 008°52'0 0.0
2017-Nov-10 23:29N 44°24' E 008°52'0 0.0
2017-Nov-10 22:59N 44°24' E 008°52'0 0.0
2017-Nov-10 22:29N 44°24' E 008°52'0 0.0
2017-Nov-10 21:59N 44°24' E 008°52'0 0.0
2017-Nov-10 21:29N 44°24' E 008°52'0 0.0
2017-Nov-10 20:59N 44°24' E 008°52'0 0.0
2017-Nov-10 20:20N 44°24' E 008°52'0 0.0
2017-Nov-10 19:56N 44°24' E 008°52'0 0.0
2017-Nov-10 19:20N 44°24' E 008°52'0 0.0
2017-Nov-10 18:56N 44°24' E 008°52'0 0.0
2017-Nov-10 18:23N 44°24' E 008°52'0 0.0
2017-Nov-10 17:53N 44°24' E 008°52'0 0.0
2017-Nov-10 17:26N 44°24' E 008°52'0 0.0
2017-Nov-10 16:56N 44°24' E 008°52'0 0.0
2017-Nov-10 16:26N 44°24' E 008°52'0 0.0
2017-Nov-10 15:44N 44°24' E 008°52'0 0.0
2017-Nov-10 15:26N 44°24' E 008°52'0 0.0
2017-Nov-10 14:56N 44°24' E 008°52'0 0.0
2017-Nov-10 14:26N 44°24' E 008°52'0 0.0
2017-Nov-10 13:56N 44°24' E 008°52'0 0.0
2017-Nov-10 13:14N 44°24' E 008°52'0 0.0
2017-Nov-10 12:56N 44°24' E 008°52'0 0.0
2017-Nov-10 12:29N 44°24' E 008°52'0 0.0
2017-Nov-10 11:59N 44°24' E 008°52'0 0.0
2017-Nov-10 11:29N 44°24' E 008°52'0 0.0
2017-Nov-10 10:59N 44°24' E 008°52'0 0.0
2017-Nov-10 10:14N 44°24' E 008°52'0 0.0
2017-Nov-10 09:59N 44°24' E 008°52'0 0.0
2017-Nov-10 09:29N 44°24' E 008°52'0 0.0
2017-Nov-10 08:59N 44°24' E 008°52'0 0.0
2017-Nov-10 08:29N 44°24' E 008°52'0 0.0
2017-Nov-10 07:58N 44°24' E 008°52'0 0.0
2017-Nov-10 07:28N 44°24' E 008°52'0 0.0
2017-Nov-10 06:58N 44°24' E 008°52'0 0.0
2017-Nov-10 06:28N 44°24' E 008°52'0 0.0
2017-Nov-10 05:58N 44°24' E 008°52'0 0.0
2017-Nov-10 05:28N 44°24' E 008°52'0 0.0
2017-Nov-10 04:49N 44°24' E 008°52'0 0.0
2017-Nov-10 04:28N 44°24' E 008°52'0 0.0
2017-Nov-10 03:49N 44°24' E 008°52'0 0.0
2017-Nov-10 03:19N 44°24' E 008°52'0 0.0
2017-Nov-10 02:49N 44°24' E 008°52'0 0.0
2017-Nov-10 02:25N 44°24' E 008°52'0 0.0
2017-Nov-10 01:52N 44°24' E 008°52'0 0.0
2017-Nov-10 01:25N 44°24' E 008°52'0 0.0
2017-Nov-10 00:52N 44°24' E 008°52'0 0.0
2017-Nov-10 00:22N 44°24' E 008°52'0 0.0
2017-Nov-09 23:52N 44°24' E 008°52'0 0.0
2017-Nov-09 23:25N 44°24' E 008°52'0 0.0
2017-Nov-09 22:55N 44°24' E 008°52'0 0.0
2017-Nov-09 22:25N 44°24' E 008°52'0 0.0
2017-Nov-09 21:55N 44°24' E 008°52'0 0.0
2017-Nov-09 21:25N 44°24' E 008°52'0 0.0
2017-Nov-09 20:55N 44°24' E 008°52'0 0.0
2017-Nov-09 20:25N 44°24' E 008°52'0 0.0
2017-Nov-09 19:58N 44°24' E 008°52'0 0.0
2017-Nov-09 19:28N 44°24' E 008°52'0 0.0
2017-Nov-09 18:58N 44°24' E 008°52'0 0.0
2017-Nov-09 18:28N 44°24' E 008°52'0 0.0
2017-Nov-09 17:58N 44°24' E 008°52'0 0.0
2017-Nov-09 17:28N 44°24' E 008°52'0 0.0
2017-Nov-09 16:58N 44°24' E 008°52'0 0.0
2017-Nov-09 16:28N 44°24' E 008°52'0 0.0
2017-Nov-09 15:58N 44°24' E 008°52'0 0.0
2017-Nov-09 15:28N 44°24' E 008°52'0 0.0
2017-Nov-09 14:58N 44°24' E 008°52'0 0.0
2017-Nov-09 14:28N 44°24' E 008°52'0 0.0
2017-Nov-09 13:58N 44°24' E 008°52'0 0.0
2017-Nov-09 13:28N 44°24' E 008°52'0 0.0
2017-Nov-09 12:58N 44°24' E 008°52'0 0.0
2017-Nov-09 12:28N 44°24' E 008°52'0 0.0
2017-Nov-09 11:58N 44°24' E 008°52'0 0.0
2017-Nov-09 11:28N 44°24' E 008°52'0 0.0
2017-Nov-09 10:58N 44°24' E 008°52'0 0.0
2017-Nov-09 10:28N 44°24' E 008°52'0 0.0
2017-Nov-09 09:58N 44°24' E 008°52'0 0.0
2017-Nov-09 09:28N 44°24' E 008°52'0 0.0
2017-Nov-09 08:58N 44°24' E 008°52'0 0.0
2017-Nov-09 08:19N 44°24' E 008°52'0 0.0
2017-Nov-09 07:58N 44°24' E 008°52'0 0.0
2017-Nov-09 07:28N 44°24' E 008°52'0 0.0
2017-Nov-09 06:55N 44°24' E 008°52'0 0.0
2017-Nov-09 06:25N 44°24' E 008°52'0 0.0
2017-Nov-09 05:49N 44°24' E 008°52'0 0.0
2017-Nov-09 05:25N 44°24' E 008°52'0 0.0
2017-Nov-09 04:52N 44°24' E 008°52'0 0.0
2017-Nov-09 04:22N 44°24' E 008°52'0 0.0
2017-Nov-09 03:55N 44°24' E 008°52'0 0.0
2017-Nov-09 03:22N 44°24' E 008°52'0 0.0
2017-Nov-09 02:55N 44°24' E 008°52'0 0.0
2017-Nov-09 02:22N 44°24' E 008°52'0 0.0
2017-Nov-09 01:55N 44°24' E 008°52'0 0.0
2017-Nov-09 01:25N 44°24' E 008°52'0 0.0
2017-Nov-09 00:55N 44°24' E 008°52'0 0.0
2017-Nov-09 00:25N 44°24' E 008°52'0 0.0
2017-Nov-08 23:55N 44°24' E 008°52'0 0.0
2017-Nov-08 23:25N 44°24' E 008°52'0 0.0
2017-Nov-08 22:58N 44°24' E 008°52'0 0.0
2017-Nov-08 22:28N 44°24' E 008°52'0 0.0
2017-Nov-08 21:58N 44°24' E 008°52'0 0.0
2017-Nov-08 21:28N 44°24' E 008°52'0 0.0
2017-Nov-08 20:58N 44°24' E 008°52'0 0.0
2017-Nov-08 20:28N 44°24' E 008°52'0 0.0
2017-Nov-08 19:58N 44°24' E 008°52'0 0.0
2017-Nov-08 19:28N 44°24' E 008°52'0 0.0
2017-Nov-08 18:58N 44°24' E 008°52'0 0.0
2017-Nov-08 18:28N 44°24' E 008°52'0 0.0
2017-Nov-08 17:58N 44°24' E 008°52'0 0.0
2017-Nov-08 17:28N 44°24' E 008°52'0 0.0
2017-Nov-08 16:58N 44°24' E 008°52'0 0.0
2017-Nov-08 16:28N 44°24' E 008°52'0 0.0
2017-Nov-08 15:58N 44°24' E 008°52'0 0.0
2017-Nov-08 15:28N 44°24' E 008°52'0 0.0
2017-Nov-08 14:58N 44°24' E 008°52'0 0.0
2017-Nov-08 14:19N 44°24' E 008°52'0 0.0
2017-Nov-08 13:55N 44°24' E 008°52'0 0.0
2017-Nov-08 13:19N 44°24' E 008°52'0 0.0
2017-Nov-08 12:52N 44°24' E 008°52'0 0.0
2017-Nov-08 12:22N 44°24' E 008°52'0 0.0
2017-Nov-08 11:52N 44°24' E 008°52'0 0.0
2017-Nov-08 11:22N 44°24' E 008°52'0 0.0
2017-Nov-08 10:52N 44°24' E 008°52'0 0.0
2017-Nov-08 10:22N 44°24' E 008°52'0 0.0
2017-Nov-08 09:52N 44°24' E 008°52'0 0.0
2017-Nov-08 09:25N 44°24' E 008°52'0 0.0
2017-Nov-08 08:55N 44°24' E 008°52'0 0.0
2017-Nov-08 08:25N 44°24' E 008°52'0 0.0
2017-Nov-08 07:55N 44°24' E 008°52'0 0.0
2017-Nov-08 07:25N 44°24' E 008°52'0 0.0
2017-Nov-08 06:55N 44°24' E 008°52'0 0.0
2017-Nov-08 06:28N 44°24' E 008°52'0 0.0
2017-Nov-08 05:58N 44°24' E 008°52'0 0.0
2017-Nov-08 05:28N 44°24' E 008°52'0 0.0
2017-Nov-08 04:58N 44°24' E 008°52'0 0.0
2017-Nov-08 04:28N 44°24' E 008°52'0 0.0
2017-Nov-08 03:58N 44°24' E 008°52'0 0.0
2017-Nov-08 03:28N 44°24' E 008°52'0 0.0
2017-Nov-08 02:58N 44°24' E 008°52'0 0.0
2017-Nov-08 02:28N 44°24' E 008°52'0 0.0
2017-Nov-08 01:58N 44°24' E 008°52'0 0.0
2017-Nov-08 01:28N 44°24' E 008°52'0 0.0
2017-Nov-08 00:58N 44°24' E 008°52'0 0.0
2017-Nov-08 00:28N 44°24' E 008°52'0 0.0
2017-Nov-07 23:58N 44°24' E 008°52'0 0.0
2017-Nov-07 23:28N 44°24' E 008°52'0 0.0
2017-Nov-07 22:58N 44°24' E 008°52'0 0.0
2017-Nov-07 22:28N 44°24' E 008°52'0 0.0
2017-Nov-07 21:55N 44°24' E 008°52'0 0.0
2017-Nov-07 21:25N 44°24' E 008°52'0 0.0
2017-Nov-07 20:55N 44°24' E 008°52'0 0.0
2017-Nov-07 20:28N 44°24' E 008°52'0 0.0
2017-Nov-07 19:55N 44°24' E 008°52'0 0.0
2017-Nov-07 19:22N 44°24' E 008°52'0 0.0
2017-Nov-07 18:58N 44°24' E 008°52'0 0.0
2017-Nov-07 18:25N 44°24' E 008°52'0 0.0
2017-Nov-07 17:58N 44°24' E 008°52'0 0.0
2017-Nov-07 17:25N 44°24' E 008°52'0 0.0
2017-Nov-07 16:58N 44°24' E 008°52'0 0.0
2017-Nov-07 16:28N 44°24' E 008°52'0 0.0
2017-Nov-07 15:55N 44°24' E 008°52'0 0.0
2017-Nov-07 15:25N 44°24' E 008°52'0 0.0
2017-Nov-07 14:55N 44°24' E 008°52'0 0.0
2017-Nov-07 14:28N 44°24' E 008°52'0 0.0
2017-Nov-07 13:58N 44°24' E 008°52'0 0.0
2017-Nov-07 13:28N 44°24' E 008°52'0 0.0
2017-Nov-07 12:58N 44°24' E 008°52'0 0.0
2017-Nov-07 12:28N 44°24' E 008°52'0 0.0
2017-Nov-07 11:58N 44°24' E 008°52'0 0.0
2017-Nov-07 11:19N 44°24' E 008°52'0 0.0
2017-Nov-07 10:58N 44°24' E 008°52'0 0.0
2017-Nov-07 10:28N 44°24' E 008°52'0 0.0
2017-Nov-07 09:55N 44°24' E 008°52'0 0.0
2017-Nov-07 09:28N 44°24' E 008°52'0 0.0
2017-Nov-07 08:58N 44°24' E 008°52'0 0.0
2017-Nov-07 08:28N 44°24' E 008°52'0 0.0
2017-Nov-07 07:58N 44°24' E 008°52'0 0.0
2017-Nov-07 07:28N 44°24' E 008°52'0 0.0
2017-Nov-07 06:58N 44°24' E 008°52'0 0.0
2017-Nov-07 06:28N 44°24' E 008°52'0 0.0
2017-Nov-07 05:58N 44°24' E 008°52'0 0.0
2017-Nov-07 05:25N 44°24' E 008°52'0 0.0
2017-Nov-07 04:52N 44°24' E 008°52'0 0.0
2017-Nov-07 04:22N 44°24' E 008°52'0 0.0
2017-Nov-07 04:01N 44°24' E 008°52'0 0.0
2017-Nov-07 03:22N 44°24' E 008°52'0 0.0
2017-Nov-07 03:01N 44°24' E 008°52'0 0.0
2017-Nov-07 02:28N 44°24' E 008°52'0 0.0
2017-Nov-07 01:55N 44°24' E 008°52'0 0.0
2017-Nov-07 01:31N 44°24' E 008°52'0 0.0
2017-Nov-07 00:58N 44°24' E 008°52'0 0.0
2017-Nov-07 00:31N 44°24' E 008°52'0 0.0
2017-Nov-06 23:58N 44°24' E 008°52'0 0.0
2017-Nov-06 23:25N 44°24' E 008°52'0 0.0
2017-Nov-06 22:57N 44°24' E 008°52'0 0.0
2017-Nov-06 22:24N 44°24' E 008°52'0 0.0
2017-Nov-06 22:00N 44°24' E 008°52'0 0.0
2017-Nov-06 21:27N 44°24' E 008°52'0 0.0
2017-Nov-06 21:00N 44°24' E 008°52'0 0.0
2017-Nov-06 20:27N 44°24' E 008°52'  

Dump ship's entire track history